createdAt,value
2022-12-25T00:01:42.344Z,57.26
2022-12-25T00:04:09.367Z,57.25
2022-12-25T00:06:37.703Z,57.23
2022-12-25T00:09:04.661Z,57.20
2022-12-25T00:11:31.643Z,57.35
2022-12-25T00:13:58.563Z,57.33
2022-12-25T00:16:27.118Z,57.16
2022-12-25T00:18:56.339Z,57.24
2022-12-25T00:21:23.285Z,57.23
2022-12-25T00:23:58.369Z,57.21
2022-12-25T00:26:27.032Z,57.15
2022-12-25T00:28:55.859Z,56.83
2022-12-25T00:31:23.949Z,56.68
2022-12-25T00:33:52.064Z,56.42
2022-12-25T00:36:21.554Z,56.21
2022-12-25T00:38:48.815Z,56.14
2022-12-25T00:41:39.193Z,55.95
2022-12-25T00:44:07.146Z,55.90
2022-12-25T00:46:34.112Z,55.83
2022-12-25T00:49:01.302Z,55.90
2022-12-25T00:51:28.717Z,55.63
2022-12-25T00:53:55.637Z,55.41
2022-12-25T00:56:22.578Z,55.46
2022-12-25T00:58:49.499Z,55.38
2022-12-25T01:01:16.881Z,55.22
2022-12-25T01:03:44.030Z,55.27
2022-12-25T01:06:13.191Z,55.22
2022-12-25T01:09:01.003Z,55.15
2022-12-25T01:11:28.647Z,55.08
2022-12-25T01:13:55.704Z,54.86
2022-12-25T01:16:22.871Z,54.90
2022-12-25T01:18:50.121Z,54.91
2022-12-25T01:21:21.236Z,54.75
2022-12-25T01:23:50.957Z,54.84
2022-12-25T01:26:18.808Z,54.81
2022-12-25T01:28:46.292Z,54.81
2022-12-25T01:31:16.241Z,54.64
2022-12-25T01:33:44.134Z,54.62
2022-12-25T01:36:25.123Z,54.62
2022-12-25T01:38:53.638Z,54.65
2022-12-25T01:41:22.370Z,54.48
2022-12-25T01:44:37.744Z,54.54
2022-12-25T01:47:06.797Z,54.50
2022-12-25T01:49:39.223Z,54.43
2022-12-25T01:52:11.932Z,54.29
2022-12-25T01:54:58.645Z,54.36
2022-12-25T01:57:30.806Z,54.30
2022-12-25T01:59:59.393Z,54.25
2022-12-25T02:02:28.112Z,54.21
2022-12-25T02:05:00.991Z,54.37
2022-12-25T02:07:32.651Z,54.03
2022-12-25T02:09:59.630Z,54.19
2022-12-25T02:12:32.911Z,54.20
2022-12-25T02:15:08.346Z,54.10
2022-12-25T02:18:06.204Z,54.02
2022-12-25T02:20:39.387Z,54.07
2022-12-25T02:23:12.186Z,54.16
2022-12-25T02:25:42.033Z,54.15
2022-12-25T02:28:27.728Z,53.95
2022-12-25T02:31:17.854Z,54.04
2022-12-25T02:34:13.700Z,53.99
2022-12-25T02:37:02.835Z,53.83
2022-12-25T02:40:00.905Z,54.04
2022-12-25T02:43:21.929Z,53.78
2022-12-25T02:46:15.939Z,53.98
2022-12-25T02:49:10.007Z,53.95
2022-12-25T02:51:59.301Z,53.96
2022-12-25T02:54:51.211Z,53.85
2022-12-25T02:57:42.566Z,53.86
2022-12-25T03:00:28.641Z,53.76
2022-12-25T03:03:17.390Z,53.89
2022-12-25T03:06:03.853Z,53.94
2022-12-25T03:08:37.286Z,53.78
2022-12-25T03:11:25.655Z,53.89
2022-12-25T03:14:18.526Z,53.93
2022-12-25T03:16:53.896Z,53.92
2022-12-25T03:19:43.429Z,53.87
2022-12-25T03:22:35.556Z,53.90
2022-12-25T03:25:21.557Z,53.88
2022-12-25T03:27:52.883Z,53.89
2022-12-25T03:30:40.486Z,53.89
2022-12-25T03:33:44.490Z,53.82
2022-12-25T03:36:26.495Z,53.82
2022-12-25T03:39:07.802Z,53.99
2022-12-25T03:42:08.246Z,53.87
2022-12-25T03:45:20.598Z,53.76
2022-12-25T03:48:08.688Z,54.03
2022-12-25T03:51:03.017Z,53.93
2022-12-25T03:53:55.072Z,53.97
2022-12-25T03:56:40.826Z,54.03
2022-12-25T03:59:26.172Z,53.87
2022-12-25T04:02:11.990Z,53.86
2022-12-25T04:04:57.829Z,53.99
2022-12-25T04:07:43.639Z,53.91
2022-12-25T04:10:29.802Z,53.91
2022-12-25T04:13:15.523Z,53.85
2022-12-25T04:16:00.940Z,53.86
2022-12-25T04:18:46.520Z,53.98
2022-12-25T04:21:32.015Z,53.97
2022-12-25T04:24:17.413Z,53.78
2022-12-25T04:27:03.115Z,53.88
2022-12-25T04:29:48.837Z,53.87
2022-12-25T04:32:34.386Z,53.76
2022-12-25T04:35:20.331Z,53.95
2022-12-25T04:37:47.335Z,53.68
2022-12-25T04:40:14.574Z,53.83
2022-12-25T04:42:41.792Z,53.92
2022-12-25T04:45:09.687Z,53.82
2022-12-25T04:47:36.771Z,53.79
2022-12-25T04:50:04.317Z,53.89
2022-12-25T04:52:36.554Z,53.90
2022-12-25T04:55:04.798Z,53.75
2022-12-25T04:57:31.928Z,53.84
2022-12-25T04:59:58.874Z,53.83
2022-12-25T05:02:26.000Z,53.69
2022-12-25T05:04:53.129Z,53.74
2022-12-25T05:07:20.077Z,53.76
2022-12-25T05:09:48.321Z,53.82
2022-12-25T05:12:16.080Z,53.72
2022-12-25T05:14:43.109Z,53.82
2022-12-25T05:17:10.147Z,53.67
2022-12-25T05:19:37.194Z,53.84
2022-12-25T05:22:04.221Z,53.70
2022-12-25T05:24:31.324Z,53.68
2022-12-25T05:26:58.456Z,53.80
2022-12-25T05:29:25.547Z,53.68
2022-12-25T05:31:52.568Z,53.79
2022-12-25T05:34:19.562Z,53.53
2022-12-25T05:36:46.529Z,53.72
2022-12-25T05:39:13.518Z,53.73
2022-12-25T05:41:40.981Z,53.75
2022-12-25T05:44:08.068Z,53.69
2022-12-25T05:46:35.090Z,53.64
2022-12-25T05:49:02.149Z,53.56
2022-12-25T05:51:30.955Z,53.73
2022-12-25T05:53:58.063Z,53.69
2022-12-25T05:56:25.120Z,53.73
2022-12-25T05:58:52.131Z,53.70
2022-12-25T06:01:22.045Z,53.54
2022-12-25T06:03:49.248Z,53.80
2022-12-25T06:06:16.450Z,53.63
2022-12-25T06:08:43.592Z,53.68
2022-12-25T06:11:13.092Z,53.56
2022-12-25T06:13:40.519Z,53.62
2022-12-25T06:16:09.866Z,53.65
2022-12-25T06:18:39.371Z,53.60
2022-12-25T06:21:08.259Z,53.61
2022-12-25T06:23:35.857Z,53.60
2022-12-25T06:26:09.074Z,53.60
2022-12-25T06:28:37.016Z,53.63
2022-12-25T06:31:08.165Z,53.56
2022-12-25T06:33:35.404Z,53.56
2022-12-25T06:36:16.385Z,53.45
2022-12-25T06:38:43.839Z,53.52
2022-12-25T06:41:13.512Z,53.71
2022-12-25T06:43:40.656Z,53.55
2022-12-25T06:46:10.812Z,53.60
2022-12-25T06:48:39.860Z,53.55
2022-12-25T06:51:07.560Z,53.51
2022-12-25T06:53:40.185Z,53.59
2022-12-25T06:56:11.131Z,53.59
2022-12-25T06:58:38.043Z,53.49
2022-12-25T07:01:15.734Z,53.55
2022-12-25T07:03:45.692Z,53.45
2022-12-25T07:06:13.021Z,53.50
2022-12-25T07:08:39.966Z,53.64
2022-12-25T07:11:07.486Z,53.52
2022-12-25T07:13:34.627Z,53.34
2022-12-25T07:16:04.206Z,53.55
2022-12-25T07:18:32.332Z,53.49
2022-12-25T07:21:00.420Z,53.49
2022-12-25T07:23:27.395Z,53.51
2022-12-25T07:25:59.057Z,53.41
2022-12-25T07:28:27.158Z,53.56
2022-12-25T07:30:54.279Z,53.58
2022-12-25T07:33:21.416Z,53.48
2022-12-25T07:35:48.391Z,53.34
2022-12-25T07:38:15.343Z,53.40
2022-12-25T07:40:45.761Z,53.44
2022-12-25T07:43:13.159Z,53.26
2022-12-25T07:45:40.123Z,53.43
2022-12-25T07:48:11.914Z,53.44
2022-12-25T07:50:44.552Z,53.37
2022-12-25T07:53:11.501Z,53.38
2022-12-25T07:55:38.400Z,53.37
2022-12-25T07:58:07.271Z,53.45
2022-12-25T08:00:34.398Z,53.25
2022-12-25T08:03:01.767Z,53.38
2022-12-25T08:05:31.170Z,53.22
2022-12-25T08:07:58.382Z,53.32
2022-12-25T08:10:25.845Z,53.35
2022-12-25T08:12:56.409Z,53.43
2022-12-25T08:15:23.304Z,53.30
2022-12-25T08:17:50.238Z,53.39
2022-12-25T08:20:17.367Z,53.27
2022-12-25T08:22:44.525Z,53.36
2022-12-25T08:25:11.573Z,53.33
2022-12-25T08:27:38.531Z,53.40
2022-12-25T08:30:06.509Z,53.43
2022-12-25T08:32:34.055Z,53.48
2022-12-25T08:35:01.183Z,53.40
2022-12-25T08:37:30.473Z,53.46
2022-12-25T08:39:57.479Z,53.48
2022-12-25T08:42:24.691Z,53.49
2022-12-25T08:44:51.640Z,53.39
2022-12-25T08:47:18.864Z,53.45
2022-12-25T08:49:46.005Z,53.40
2022-12-25T08:52:13.186Z,53.44
2022-12-25T08:54:40.387Z,53.48
2022-12-25T08:57:08.033Z,53.47
2022-12-25T08:59:34.945Z,53.36
2022-12-25T09:02:02.191Z,53.42
2022-12-25T09:04:29.276Z,53.56
2022-12-25T09:06:56.320Z,53.44
2022-12-25T09:09:27.839Z,53.45
2022-12-25T09:11:55.397Z,53.51
2022-12-25T09:14:22.361Z,53.39
2022-12-25T09:16:52.309Z,53.45
2022-12-25T09:19:19.757Z,53.55
2022-12-25T09:21:46.688Z,53.40
2022-12-25T09:24:13.699Z,53.42
2022-12-25T09:26:40.708Z,53.57
2022-12-25T09:29:07.688Z,53.95
2022-12-25T09:31:34.718Z,54.14
2022-12-25T09:34:01.774Z,54.82
2022-12-25T09:36:29.296Z,55.89
2022-12-25T09:38:56.255Z,56.62
2022-12-25T09:41:32.459Z,56.83
2022-12-25T09:44:21.898Z,57.16
2022-12-25T09:46:57.892Z,57.24
2022-12-25T09:49:30.608Z,57.49
2022-12-25T09:52:05.267Z,57.44
2022-12-25T09:54:48.771Z,57.40
2022-12-25T09:57:16.272Z,57.54
2022-12-25T09:59:45.337Z,57.48
2022-12-25T10:02:21.335Z,57.58
2022-12-25T10:05:02.112Z,57.45
2022-12-25T10:08:05.626Z,57.86
2022-12-25T10:10:44.667Z,57.54
2022-12-25T10:13:40.835Z,57.60
2022-12-25T10:16:31.375Z,57.35
2022-12-25T10:19:19.313Z,57.22
2022-12-25T10:21:47.563Z,57.01
2022-12-25T10:24:33.891Z,56.99
2022-12-25T10:27:05.203Z,56.83
2022-12-25T10:29:35.135Z,56.75
2022-12-25T10:32:02.430Z,56.71
2022-12-25T10:34:30.091Z,56.73
2022-12-25T10:37:01.053Z,56.85
2022-12-25T10:39:28.203Z,57.01
2022-12-25T10:41:55.203Z,57.22
2022-12-25T10:44:26.696Z,57.15
2022-12-25T10:46:59.188Z,57.23
2022-12-25T10:49:39.685Z,57.04
2022-12-25T10:52:24.699Z,56.94
2022-12-25T10:54:52.438Z,56.93
2022-12-25T10:57:22.408Z,56.73
2022-12-25T10:59:52.509Z,56.77
2022-12-25T11:02:27.980Z,56.76
2022-12-25T11:05:03.543Z,56.59
2022-12-25T11:07:32.524Z,56.71
2022-12-25T11:10:05.581Z,56.60
2022-12-25T11:12:41.934Z,56.48
2022-12-25T11:15:42.430Z,56.64
2022-12-25T11:18:22.101Z,56.66
2022-12-25T11:20:51.505Z,56.54
2022-12-25T11:23:21.352Z,56.52
2022-12-25T11:26:04.655Z,56.63
2022-12-25T11:28:34.724Z,56.51
2022-12-25T11:31:10.725Z,56.52
2022-12-25T11:34:02.987Z,56.31
2022-12-25T11:36:51.909Z,56.43
2022-12-25T11:39:29.232Z,56.27
2022-12-25T11:42:26.837Z,56.30
2022-12-25T11:45:12.111Z,56.42
2022-12-25T11:48:19.673Z,56.38
2022-12-25T11:51:00.329Z,56.28
2022-12-25T11:53:42.201Z,56.12
2022-12-25T11:56:16.237Z,56.28
2022-12-25T11:58:48.711Z,56.14
2022-12-25T12:01:54.388Z,56.09
2022-12-25T12:04:31.737Z,56.21
2022-12-25T12:07:10.976Z,56.00
2022-12-25T12:09:45.662Z,56.07
2022-12-25T12:12:15.711Z,56.12
2022-12-25T12:14:57.066Z,56.23
2022-12-25T12:17:24.161Z,56.16
2022-12-25T12:19:52.936Z,56.04
2022-12-25T12:22:28.165Z,56.01
2022-12-25T12:25:06.830Z,56.03
2022-12-25T12:27:43.062Z,56.03
2022-12-25T12:30:30.323Z,56.06
2022-12-25T12:33:01.484Z,56.11
2022-12-25T12:35:41.296Z,56.09
2022-12-25T12:38:16.027Z,56.11
2022-12-25T12:40:52.586Z,56.12
2022-12-25T12:43:43.542Z,56.30
2022-12-25T12:46:27.966Z,56.89
2022-12-25T12:49:29.624Z,57.53
2022-12-25T12:52:26.323Z,57.81
2022-12-25T12:55:01.607Z,58.05
2022-12-25T12:57:32.980Z,58.01
2022-12-25T13:00:10.605Z,57.88
2022-12-25T13:02:51.633Z,58.11
2022-12-25T13:05:29.069Z,58.66
2022-12-25T13:08:19.547Z,58.91
2022-12-25T13:10:53.112Z,59.29
2022-12-25T13:13:34.535Z,59.44
2022-12-25T13:16:06.774Z,59.79
2022-12-25T13:18:35.590Z,60.83
2022-12-25T13:21:06.985Z,60.73
2022-12-25T13:23:36.749Z,60.41
2022-12-25T13:26:15.021Z,60.28
2022-12-25T13:28:42.275Z,60.34
2022-12-25T13:31:22.844Z,60.03
2022-12-25T13:34:07.231Z,60.12
2022-12-25T13:36:40.456Z,60.21
2022-12-25T13:39:09.881Z,60.11
2022-12-25T13:42:04.734Z,59.94
2022-12-25T13:44:43.414Z,60.17
2022-12-25T13:47:23.165Z,60.03
2022-12-25T13:49:52.786Z,60.03
2022-12-25T13:52:36.069Z,59.84
2022-12-25T13:55:11.328Z,60.32
2022-12-25T13:58:05.298Z,60.51
2022-12-25T14:00:50.520Z,60.56
2022-12-25T14:03:26.708Z,60.74
2022-12-25T14:05:59.463Z,60.27
2022-12-25T14:08:31.444Z,60.33
2022-12-25T14:11:04.997Z,60.30
2022-12-25T14:13:35.981Z,60.62
2022-12-25T14:16:03.397Z,60.93
2022-12-25T14:18:33.923Z,60.61
2022-12-25T14:21:10.307Z,60.82
2022-12-25T14:23:46.459Z,60.63
2022-12-25T14:26:21.879Z,60.42
2022-12-25T14:28:55.758Z,60.14
2022-12-25T14:31:25.257Z,60.23
2022-12-25T14:33:53.972Z,60.03
2022-12-25T14:36:21.579Z,59.78
2022-12-25T14:39:07.424Z,59.68
2022-12-25T14:41:42.082Z,59.20
2022-12-25T14:44:34.814Z,59.05
2022-12-25T14:47:11.013Z,58.75
2022-12-25T14:49:38.896Z,58.69
2022-12-25T14:52:36.502Z,58.43
2022-12-25T14:55:08.248Z,58.45
2022-12-25T14:57:40.036Z,58.25
2022-12-25T15:00:27.801Z,58.06
2022-12-25T15:02:57.942Z,58.11
2022-12-25T15:05:40.771Z,58.08
2022-12-25T15:11:01.824Z,57.84
2022-12-25T15:13:34.551Z,57.80
2022-12-25T15:16:22.268Z,57.79
2022-12-25T15:18:50.832Z,57.66
2022-12-25T15:21:27.430Z,57.65
2022-12-25T15:23:55.588Z,57.50
2022-12-25T15:26:22.935Z,57.41
2022-12-25T15:28:50.137Z,57.53
2022-12-25T15:31:32.141Z,57.34
2022-12-25T15:34:02.512Z,57.49
2022-12-25T15:36:32.679Z,57.37
2022-12-25T15:39:00.519Z,57.31
2022-12-25T15:41:52.636Z,57.31
2022-12-25T15:44:21.213Z,57.18
2022-12-25T15:46:50.971Z,57.18
2022-12-25T15:49:18.397Z,57.14
2022-12-25T15:51:46.742Z,57.05
2022-12-25T15:54:14.121Z,57.05
2022-12-25T15:56:43.233Z,57.02
2022-12-25T15:59:12.489Z,57.05
2022-12-25T16:01:42.301Z,56.90
2022-12-25T16:04:09.283Z,56.88
2022-12-25T16:06:36.316Z,56.82
2022-12-25T16:09:03.444Z,56.93
2022-12-25T16:11:30.606Z,56.74
2022-12-25T16:13:57.849Z,56.74
2022-12-25T16:16:25.008Z,56.74
2022-12-25T16:18:52.094Z,56.67
2022-12-25T16:21:21.344Z,56.58
2022-12-25T16:23:48.473Z,56.69
2022-12-25T16:26:15.608Z,56.56
2022-12-25T16:28:42.628Z,56.66
2022-12-25T16:31:10.949Z,56.65
2022-12-25T16:33:37.961Z,56.71
2022-12-25T16:36:05.172Z,56.61
2022-12-25T16:38:32.233Z,56.66
2022-12-25T16:41:01.209Z,56.69
2022-12-25T16:43:28.928Z,56.67
2022-12-25T16:45:57.556Z,56.62
2022-12-25T16:48:24.629Z,56.68
2022-12-25T16:50:51.677Z,56.76
2022-12-25T16:53:19.678Z,56.52
2022-12-25T16:55:46.605Z,56.62
2022-12-25T16:58:13.607Z,56.54
2022-12-25T17:00:45.736Z,56.48
2022-12-25T17:03:16.590Z,56.56
2022-12-25T17:05:43.698Z,56.53
2022-12-25T17:08:12.463Z,56.50
2022-12-25T17:10:39.602Z,56.58
2022-12-25T17:13:08.215Z,56.42
2022-12-25T17:15:35.322Z,56.44
2022-12-25T17:18:02.358Z,56.29
2022-12-25T17:20:29.399Z,56.36
2022-12-25T17:22:58.156Z,56.36
2022-12-25T17:25:25.261Z,56.37
2022-12-25T17:27:52.408Z,56.45
2022-12-25T17:30:19.497Z,56.35
2022-12-25T17:32:47.295Z,56.42
2022-12-25T17:35:14.421Z,56.39
2022-12-25T17:37:41.731Z,56.41
2022-12-25T17:40:11.340Z,56.31
2022-12-25T17:42:38.337Z,56.30
2022-12-25T17:45:05.836Z,56.42
2022-12-25T17:47:33.048Z,56.36
2022-12-25T17:50:00.859Z,56.42
2022-12-25T17:52:27.837Z,56.35
2022-12-25T17:54:54.830Z,56.38
2022-12-25T17:57:21.857Z,56.40
2022-12-25T17:59:49.647Z,56.31
2022-12-25T18:02:16.757Z,56.37
2022-12-25T18:04:43.851Z,56.29
2022-12-25T18:07:10.930Z,56.20
2022-12-25T18:09:38.144Z,56.20
2022-12-25T18:12:05.546Z,56.21
2022-12-25T18:14:32.615Z,56.15
2022-12-25T18:17:01.881Z,56.25
2022-12-25T18:19:30.331Z,56.04
2022-12-25T18:21:57.449Z,55.95
2022-12-25T18:24:24.593Z,56.26
2022-12-25T18:26:51.647Z,56.01
2022-12-25T18:29:18.898Z,56.06
2022-12-25T18:31:45.953Z,55.88
2022-12-25T18:34:13.996Z,55.86
2022-12-25T18:36:41.218Z,55.80
2022-12-25T18:39:08.264Z,55.76
2022-12-25T18:41:55.118Z,55.94
2022-12-25T18:44:22.115Z,55.78
2022-12-25T18:46:49.163Z,55.80
2022-12-25T18:49:16.164Z,55.79
2022-12-25T18:51:43.264Z,55.76
2022-12-25T18:54:10.273Z,55.54
2022-12-25T18:56:37.413Z,55.61
2022-12-25T18:59:04.629Z,55.67
2022-12-25T19:01:33.417Z,55.68
2022-12-25T19:04:05.183Z,55.67
2022-12-25T19:06:33.595Z,55.66
2022-12-25T19:09:00.936Z,55.60
2022-12-25T19:11:30.805Z,55.54
2022-12-25T19:13:57.869Z,55.58
2022-12-25T19:16:25.059Z,55.54
2022-12-25T19:18:52.738Z,55.37
2022-12-25T19:21:19.674Z,55.44
2022-12-25T19:23:47.061Z,55.33
2022-12-25T19:26:15.246Z,55.34
2022-12-25T19:28:43.503Z,55.36
2022-12-25T19:31:11.034Z,55.22
2022-12-25T19:33:41.598Z,55.26
2022-12-25T19:36:14.044Z,55.24
2022-12-25T19:38:42.979Z,55.17
2022-12-25T19:41:18.672Z,55.28
2022-12-25T19:43:50.439Z,55.18
2022-12-25T19:46:27.335Z,55.18
2022-12-25T19:48:55.559Z,55.19
2022-12-25T19:51:29.417Z,55.08
2022-12-25T19:53:57.938Z,55.18
2022-12-25T19:56:27.018Z,55.07
2022-12-25T19:59:00.390Z,55.06
2022-12-25T20:01:30.446Z,55.08
2022-12-25T20:03:59.613Z,54.96
2022-12-25T20:06:33.357Z,55.05
2022-12-25T20:09:06.927Z,54.92
2022-12-25T20:11:36.222Z,54.90
2022-12-25T20:14:04.580Z,54.93
2022-12-25T20:16:33.681Z,54.98
2022-12-25T20:19:02.161Z,55.00
2022-12-25T20:21:30.221Z,55.10
2022-12-25T20:23:57.963Z,54.76
2022-12-25T20:26:32.200Z,54.86
2022-12-25T20:29:01.311Z,54.77
2022-12-25T20:31:33.288Z,54.90
2022-12-25T20:34:05.948Z,54.78
2022-12-25T20:36:37.227Z,54.75
2022-12-25T20:39:10.072Z,54.90
2022-12-25T20:41:40.985Z,54.62
2022-12-25T20:44:10.291Z,54.71
2022-12-25T20:46:38.009Z,54.83
2022-12-25T20:49:05.822Z,54.60
2022-12-25T20:51:34.612Z,54.69
2022-12-25T20:54:09.545Z,54.72
2022-12-25T20:56:38.898Z,54.66
2022-12-25T20:59:05.973Z,54.66
2022-12-25T21:01:33.077Z,54.73
2022-12-25T21:04:00.305Z,54.52
2022-12-25T21:06:28.082Z,54.61
2022-12-25T21:08:55.262Z,54.47
2022-12-25T21:11:22.471Z,54.55
2022-12-25T21:13:50.662Z,54.51
2022-12-25T21:16:21.685Z,54.25
2022-12-25T21:18:52.635Z,54.37
2022-12-25T21:21:20.760Z,54.52
2022-12-25T21:23:48.000Z,54.43
2022-12-25T21:26:24.088Z,54.37
2022-12-25T21:28:53.799Z,54.32
2022-12-25T21:31:22.783Z,54.18
2022-12-25T21:33:53.741Z,54.23
2022-12-25T21:36:29.836Z,54.24
2022-12-25T21:39:00.352Z,54.18
2022-12-25T21:41:29.021Z,54.25
2022-12-25T21:43:56.739Z,54.21
2022-12-25T21:46:26.089Z,54.10
2022-12-25T21:48:54.769Z,54.25
2022-12-25T21:51:46.083Z,54.36
2022-12-25T21:54:14.793Z,54.21
2022-12-25T21:56:45.408Z,54.22
2022-12-25T21:59:20.007Z,54.20
2022-12-25T22:01:54.479Z,54.16
2022-12-25T22:04:23.002Z,54.19
2022-12-25T22:07:10.405Z,54.23
2022-12-25T22:09:38.110Z,54.08
2022-12-25T22:12:30.135Z,54.22
2022-12-25T22:15:06.907Z,54.20
2022-12-25T22:17:54.121Z,54.15
2022-12-25T22:20:37.649Z,54.08
2022-12-25T22:23:06.226Z,54.04
2022-12-25T22:25:33.196Z,54.08
2022-12-25T22:28:00.731Z,54.02
2022-12-25T22:30:29.388Z,54.06
2022-12-25T22:32:56.995Z,54.08
2022-12-25T22:35:25.499Z,54.02
2022-12-25T22:37:54.187Z,54.10
2022-12-25T22:40:22.527Z,53.99
2022-12-25T22:42:49.890Z,53.93
2022-12-25T22:45:17.266Z,54.02
2022-12-25T22:47:44.357Z,53.91
2022-12-25T22:50:12.483Z,53.87
2022-12-25T22:52:40.863Z,53.91
2022-12-25T22:55:10.009Z,53.96
2022-12-25T22:57:37.343Z,53.96
2022-12-25T23:00:15.142Z,54.01
2022-12-25T23:02:43.551Z,53.93
2022-12-25T23:05:12.323Z,53.87
2022-12-25T23:07:41.943Z,53.95
2022-12-25T23:10:10.345Z,53.80
2022-12-25T23:12:56.039Z,53.90
2022-12-25T23:15:23.174Z,53.95
2022-12-25T23:18:09.554Z,53.88
2022-12-25T23:20:58.503Z,53.88
2022-12-25T23:23:45.440Z,53.73
2022-12-25T23:26:15.893Z,53.79
2022-12-25T23:29:07.600Z,53.73
2022-12-25T23:31:38.379Z,53.75
2022-12-25T23:34:06.701Z,53.71
2022-12-25T23:36:35.703Z,53.64
2022-12-25T23:39:09.708Z,53.79
2022-12-25T23:41:40.628Z,53.62
2022-12-25T23:44:08.377Z,53.83
2022-12-25T23:46:37.866Z,53.89
2022-12-25T23:49:05.351Z,53.89
2022-12-25T23:51:32.658Z,53.86
2022-12-25T23:54:00.399Z,53.92
2022-12-25T23:56:29.245Z,53.91
2022-12-25T23:58:56.680Z,54.00
